sensor_id;sensor_type;location;lat;lon;timestamp;pressure;altitude;pressure_sealevel;temperature;humidity
84108;BME280;74203;50.730;1.626;2024-02-04T00:01:25;101741.22;;;10.08;90.75
84108;BME280;74203;50.730;1.626;2024-02-04T00:03:32;101734.13;;;10.15;90.30
84108;BME280;74203;50.730;1.626;2024-02-04T00:05:40;101733.81;;;10.18;90.47
84108;BME280;74203;50.730;1.626;2024-02-04T00:07:47;101731.13;;;10.26;89.93
84108;BME280;74203;50.730;1.626;2024-02-04T00:09:55;101721.81;;;10.21;90.17
84108;BME280;74203;50.730;1.626;2024-02-04T00:12:02;101720.31;;;10.26;90.15
84108;BME280;74203;50.730;1.626;2024-02-04T00:14:10;101722.84;;;10.28;89.83
84108;BME280;74203;50.730;1.626;2024-02-04T00:16:17;101706.81;;;10.18;90.22
84108;BME280;74203;50.730;1.626;2024-02-04T00:18:25;101698.37;;;10.29;89.77
84108;BME280;74203;50.730;1.626;2024-02-04T00:20:32;101712.59;;;10.23;89.91
84108;BME280;74203;50.730;1.626;2024-02-04T00:22:40;101711.53;;;10.32;89.76
84108;BME280;74203;50.730;1.626;2024-02-04T00:24:47;101707.31;;;10.22;90.30
84108;BME280;74203;50.730;1.626;2024-02-04T00:26:54;101717.09;;;10.15;90.57
84108;BME280;74203;50.730;1.626;2024-02-04T00:29:02;101687.94;;;10.26;90.06
84108;BME280;74203;50.730;1.626;2024-02-04T00:31:09;101689.94;;;10.32;90.01
84108;BME280;74203;50.730;1.626;2024-02-04T00:33:17;101686.53;;;10.22;89.99
84108;BME280;74203;50.730;1.626;2024-02-04T00:35:24;101678.63;;;10.21;90.25
84108;BME280;74203;50.730;1.626;2024-02-04T00:37:31;101674.75;;;10.31;89.99
84108;BME280;74203;50.730;1.626;2024-02-04T00:39:39;101674.44;;;10.26;89.86
84108;BME280;74203;50.730;1.626;2024-02-04T00:41:46;101672.41;;;10.28;90.12
84108;BME280;74203;50.730;1.626;2024-02-04T00:43:54;101674.41;;;10.34;89.72
84108;BME280;74203;50.730;1.626;2024-02-04T00:46:01;101669.38;;;10.15;90.26
84108;BME280;74203;50.730;1.626;2024-02-04T00:48:09;101681.16;;;10.22;90.08
84108;BME280;74203;50.730;1.626;2024-02-04T00:50:17;101678.63;;;10.21;89.94
84108;BME280;74203;50.730;1.626;2024-02-04T00:52:24;101684.56;;;10.08;90.61
84108;BME280;74203;50.730;1.626;2024-02-04T00:54:32;101690.28;;;10.21;90.02
84108;BME280;74203;50.730;1.626;2024-02-04T00:56:39;101681.50;;;10.19;89.92
84108;BME280;74203;50.730;1.626;2024-02-04T00:58:46;101696.03;;;10.02;90.82
84108;BME280;74203;50.730;1.626;2024-02-04T01:00:54;101684.25;;;10.11;90.85
84108;BME280;74203;50.730;1.626;2024-02-04T01:03:01;101685.41;;;10.08;90.64
84108;BME280;74203;50.730;1.626;2024-02-04T01:05:10;101691.34;;;10.04;91.05
84108;BME280;74203;50.730;1.626;2024-02-04T01:07:17;101687.59;;;10.13;90.45
84108;BME280;74203;50.730;1.626;2024-02-04T01:09:25;101703.12;;;10.11;90.64
84108;BME280;74203;50.730;1.626;2024-02-04T01:11:32;101700.75;;;10.16;90.70
84108;BME280;74203;50.730;1.626;2024-02-04T01:13:40;101710.03;;;10.13;90.43
84108;BME280;74203;50.730;1.626;2024-02-04T01:15:47;101702.94;;;10.21;90.23
84108;BME280;74203;50.730;1.626;2024-02-04T01:17:55;101685.56;;;10.15;90.18
84108;BME280;74203;50.730;1.626;2024-02-04T01:20:02;101687.25;;;10.32;90.07
84108;BME280;74203;50.730;1.626;2024-02-04T01:22:10;101685.41;;;10.25;89.84
84108;BME280;74203;50.730;1.626;2024-02-04T01:24:17;101686.91;;;10.19;89.96
84108;BME280;74203;50.730;1.626;2024-02-04T01:26:24;101675.47;;;10.25;89.83
84108;BME280;74203;50.730;1.626;2024-02-04T01:28:32;101680.16;;;10.15;90.26
84108;BME280;74203;50.730;1.626;2024-02-04T01:30:39;101688.59;;;10.20;89.83
84108;BME280;74203;50.730;1.626;2024-02-04T01:32:47;101681.50;;;10.19;90.10
84108;BME280;74203;50.730;1.626;2024-02-04T01:34:54;101691.66;;;10.09;90.27
84108;BME280;74203;50.730;1.626;2024-02-04T01:37:01;101670.78;;;10.03;90.60
84108;BME280;74203;50.730;1.626;2024-02-04T01:39:09;101684.56;;;10.16;90.38
84108;BME280;74203;50.730;1.626;2024-02-04T01:41:16;101690.97;;;10.15;90.40
84108;BME280;74203;50.730;1.626;2024-02-04T01:43:24;101687.09;;;10.26;90.12
84108;BME280;74203;50.730;1.626;2024-02-04T01:45:32;101689.25;;;10.22;90.12
84108;BME280;74203;50.730;1.626;2024-02-04T01:47:39;101695.03;;;10.11;89.91
84108;BME280;74203;50.730;1.626;2024-02-04T01:49:47;101707.66;;;10.19;90.05
84108;BME280;74203;50.730;1.626;2024-02-04T01:51:56;101704.44;;;10.15;90.20
84108;BME280;74203;50.730;1.626;2024-02-04T01:54:04;101693.69;;;10.07;90.49
84108;BME280;74203;50.730;1.626;2024-02-04T01:56:13;101692.81;;;10.15;90.67
84108;BME280;74203;50.730;1.626;2024-02-04T01:58:20;101700.44;;;10.11;90.59
84108;BME280;74203;50.730;1.626;2024-02-04T02:00:28;101703.09;;;10.19;90.43
84108;BME280;74203;50.730;1.626;2024-02-04T02:02:38;101704.31;;;10.17;90.26
84108;BME280;74203;50.730;1.626;2024-02-04T02:04:47;101706.66;;;10.11;90.47
84108;BME280;74203;50.730;1.626;2024-02-04T02:06:55;101694.53;;;10.07;90.74
84108;BME280;74203;50.730;1.626;2024-02-04T02:09:05;101698.53;;;10.20;90.46
84108;BME280;74203;50.730;1.626;2024-02-04T02:11:18;101706.16;;;10.08;90.63
84108;BME280;74203;50.730;1.626;2024-02-04T02:13:31;101698.06;;;10.16;90.73
84108;BME280;74203;50.730;1.626;2024-02-04T02:15:45;101701.78;;;10.07;90.65
84108;BME280;74203;50.730;1.626;2024-02-04T02:18:01;101698.06;;;10.16;90.61
84108;BME280;74203;50.730;1.626;2024-02-04T02:20:15;101702.59;;;10.16;90.39
84108;BME280;74203;50.730;1.626;2024-02-04T02:22:34;101698.06;;;10.24;90.57
84108;BME280;74203;50.730;1.626;2024-02-04T02:24:49;101693.97;;;10.20;89.90
84108;BME280;74203;50.730;1.626;2024-02-04T02:26:58;101700.75;;;10.24;90.25
84108;BME280;74203;50.730;1.626;2024-02-04T02:29:06;101686.91;;;10.19;90.38
84108;BME280;74203;50.730;1.626;2024-02-04T02:31:13;101675.47;;;10.17;90.31
84108;BME280;74203;50.730;1.626;2024-02-04T02:33:21;101676.81;;;10.13;90.53
84108;BME280;74203;50.730;1.626;2024-02-04T02:35:29;101675.81;;;10.06;90.66
84108;BME280;74203;50.730;1.626;2024-02-04T02:37:43;101667.06;;;10.04;90.91
84108;BME280;74203;50.730;1.626;2024-02-04T02:40:01;101662.97;;;10.08;90.71
84108;BME280;74203;50.730;1.626;2024-02-04T02:42:14;101671.22;;;10.15;90.73
84108;BME280;74203;50.730;1.626;2024-02-04T02:44:23;101667.53;;;10.24;90.49
84108;BME280;74203;50.730;1.626;2024-02-04T02:46:31;101663.97;;;10.15;90.78
84108;BME280;74203;50.730;1.626;2024-02-04T02:48:39;101657.06;;;10.12;90.55
84108;BME280;74203;50.730;1.626;2024-02-04T02:50:47;101656.56;;;10.17;90.83
84108;BME280;74203;50.730;1.626;2024-02-04T02:52:54;101657.72;;;10.23;90.39
84108;BME280;74203;50.730;1.626;2024-02-04T02:55:02;101650.16;;;10.26;90.35
84108;BME280;74203;50.730;1.626;2024-02-04T02:57:10;101651.16;;;10.25;90.37
84108;BME280;74203;50.730;1.626;2024-02-04T02:59:17;101644.94;;;10.17;90.54
84108;BME280;74203;50.730;1.626;2024-02-04T03:01:24;101653.19;;;10.15;90.51
84108;BME280;74203;50.730;1.626;2024-02-04T03:03:32;101653.31;;;10.22;90.74
84108;BME280;74203;50.730;1.626;2024-02-04T03:05:39;101646.28;;;10.12;90.78
84108;BME280;74203;50.730;1.626;2024-02-04T03:07:46;101636.00;;;10.16;90.63
84108;BME280;74203;50.730;1.626;2024-02-04T03:09:55;101647.78;;;10.15;90.95
84108;BME280;74203;50.730;1.626;2024-02-04T03:12:02;101644.56;;;10.20;90.83
84108;BME280;74203;50.730;1.626;2024-02-04T03:14:10;101644.78;;;10.10;90.45
84108;BME280;74203;50.730;1.626;2024-02-04T03:16:18;101654.88;;;10.08;90.81
84108;BME280;74203;50.730;1.626;2024-02-04T03:18:25;101652.56;;;10.05;90.91
84108;BME280;74203;50.730;1.626;2024-02-04T03:20:32;101651.16;;;10.09;90.68
84108;BME280;74203;50.730;1.626;2024-02-04T03:22:40;101651.34;;;10.07;90.88
84108;BME280;74203;50.730;1.626;2024-02-04T03:24:47;101642.94;;;10.02;91.07
84108;BME280;74203;50.730;1.626;2024-02-04T03:26:55;101649.19;;;10.03;90.88
84108;BME280;74203;50.730;1.626;2024-02-04T03:29:02;101653.87;;;10.09;90.56
84108;BME280;74203;50.730;1.626;2024-02-04T03:31:10;101649.81;;;10.13;90.51
84108;BME280;74203;50.730;1.626;2024-02-04T03:33:17;101656.91;;;10.14;90.44
84108;BME280;74203;50.730;1.626;2024-02-04T03:35:25;101660.97;;;10.10;90.52
84108;BME280;74203;50.730;1.626;2024-02-04T03:37:32;101656.28;;;10.04;90.67
84108;BME280;74203;50.730;1.626;2024-02-04T03:39:39;101663.69;;;9.94;91.03
84108;BME280;74203;50.730;1.626;2024-02-04T03:41:47;101656.13;;;9.97;91.16
84108;BME280;74203;50.730;1.626;2024-02-04T03:43:54;101665.06;;;9.90;91.47
84108;BME280;74203;50.730;1.626;2024-02-04T03:46:01;101672.84;;;9.84;91.83
84108;BME280;74203;50.730;1.626;2024-02-04T03:48:10;101661.16;;;10.00;91.43
84108;BME280;74203;50.730;1.626;2024-02-04T03:50:17;101657.63;;;9.92;91.29
84108;BME280;74203;50.730;1.626;2024-02-04T03:52:24;101655.09;;;9.98;91.32
84108;BME280;74203;50.730;1.626;2024-02-04T03:54:32;101654.44;;;9.96;91.13
84108;BME280;74203;50.730;1.626;2024-02-04T03:56:40;101657.78;;;9.98;90.90
84108;BME280;74203;50.730;1.626;2024-02-04T03:58:47;101651.50;;;10.14;90.73
84108;BME280;74203;50.730;1.626;2024-02-04T04:00:54;101651.16;;;10.17;90.38
84108;BME280;74203;50.730;1.626;2024-02-04T04:03:02;101641.03;;;10.19;90.18
84108;BME280;74203;50.730;1.626;2024-02-04T04:05:12;101626.03;;;10.17;89.98
84108;BME280;74203;50.730;1.626;2024-02-04T04:07:20;101628.94;;;10.07;90.00
84108;BME280;74203;50.730;1.626;2024-02-04T04:09:27;101628.94;;;10.07;90.52
84108;BME280;74203;50.730;1.626;2024-02-04T04:11:35;101625.72;;;10.11;90.26
84108;BME280;74203;50.730;1.626;2024-02-04T04:13:42;101633.31;;;10.08;90.23
84108;BME280;74203;50.730;1.626;2024-02-04T04:15:50;101625.06;;;10.01;90.62
84108;BME280;74203;50.730;1.626;2024-02-04T04:17:58;101620.19;;;10.05;90.42
84108;BME280;74203;50.730;1.626;2024-02-04T04:20:07;101595.38;;;10.01;90.49
84108;BME280;74203;50.730;1.626;2024-02-04T04:22:14;101609.53;;;10.11;90.29
84108;BME280;74203;50.730;1.626;2024-02-04T04:24:22;101592.69;;;10.01;90.35
84108;BME280;74203;50.730;1.626;2024-02-04T04:26:29;101601.94;;;10.07;90.54
84108;BME280;74203;50.730;1.626;2024-02-04T04:28:37;101603.91;;;10.21;90.11
84108;BME280;74203;50.730;1.626;2024-02-04T04:30:44;101610.03;;;10.23;89.87
84108;BME280;74203;50.730;1.626;2024-02-04T04:32:52;101615.44;;;10.23;89.83
84108;BME280;74203;50.730;1.626;2024-02-04T04:34:59;101625.19;;;10.24;89.91
84108;BME280;74203;50.730;1.626;2024-02-04T04:37:07;101628.19;;;10.29;89.63
84108;BME280;74203;50.730;1.626;2024-02-04T04:39:14;101619.25;;;10.21;89.62
84108;BME280;74203;50.730;1.626;2024-02-04T04:41:21;101626.69;;;10.19;89.79
84108;BME280;74203;50.730;1.626;2024-02-04T04:43:29;101623.03;;;10.11;89.91
84108;BME280;74203;50.730;1.626;2024-02-04T04:45:36;101626.87;;;10.09;90.28
84108;BME280;74203;50.730;1.626;2024-02-04T04:47:44;101628.78;;;10.00;90.15
84108;BME280;74203;50.730;1.626;2024-02-04T04:49:52;101628.09;;;10.06;90.38
84108;BME280;74203;50.730;1.626;2024-02-04T04:51:59;101642.09;;;10.02;90.31
84108;BME280;74203;50.730;1.626;2024-02-04T04:54:07;101638.19;;;10.12;90.07
84108;BME280;74203;50.730;1.626;2024-02-04T04:56:14;101635.84;;;10.01;90.36
84108;BME280;74203;50.730;1.626;2024-02-04T04:58:22;101626.78;;;9.94;90.44
84108;BME280;74203;50.730;1.626;2024-02-04T05:00:29;101615.47;;;9.99;90.62
84108;BME280;74203;50.730;1.626;2024-02-04T05:02:36;101611.12;;;9.90;90.76
84108;BME280;74203;50.730;1.626;2024-02-04T05:04:47;101607.88;;;9.94;90.51
84108;BME280;74203;50.730;1.626;2024-02-04T05:06:54;101600.78;;;10.09;90.59
84108;BME280;74203;50.730;1.626;2024-02-04T05:09:02;101601.94;;;10.07;90.26
84108;BME280;74203;50.730;1.626;2024-02-04T05:11:09;101602.63;;;10.01;90.44
84108;BME280;74203;50.730;1.626;2024-02-04T05:13:17;101599.75;;;10.02;90.48
84108;BME280;74203;50.730;1.626;2024-02-04T05:15:24;101608.41;;;9.98;90.27
84108;BME280;74203;50.730;1.626;2024-02-04T05:17:32;101612.97;;;9.97;90.14
84108;BME280;74203;50.730;1.626;2024-02-04T05:19:40;101620.34;;;10.03;90.41
84108;BME280;74203;50.730;1.626;2024-02-04T05:21:48;101616.81;;;10.03;90.60
84108;BME280;74203;50.730;1.626;2024-02-04T05:23:55;101613.78;;;9.98;90.35
84108;BME280;74203;50.730;1.626;2024-02-04T05:26:05;101612.41;;;10.10;90.54
84108;BME280;74203;50.730;1.626;2024-02-04T05:28:12;101618.50;;;10.04;90.46
84108;BME280;74203;50.730;1.626;2024-02-04T05:30:20;101608.69;;;10.11;90.34
84108;BME280;74203;50.730;1.626;2024-02-04T05:32:28;101616.81;;;10.03;90.29
84108;BME280;74203;50.730;1.626;2024-02-04T05:34:36;101622.72;;;9.98;90.42
84108;BME280;74203;50.730;1.626;2024-02-04T05:36:44;101612.59;;;10.00;90.80
84108;BME280;74203;50.730;1.626;2024-02-04T05:38:51;101611.72;;;10.08;90.70
84108;BME280;74203;50.730;1.626;2024-02-04T05:40:59;101624.88;;;10.11;89.98
84108;BME280;74203;50.730;1.626;2024-02-04T05:43:07;101624.19;;;10.09;90.21
84108;BME280;74203;50.730;1.626;2024-02-04T05:45:15;101614.56;;;10.15;89.89
84108;BME280;74203;50.730;1.626;2024-02-04T05:47:23;101623.53;;;10.07;89.97
84108;BME280;74203;50.730;1.626;2024-02-04T05:49:30;101610.03;;;10.23;89.66
84108;BME280;74203;50.730;1.626;2024-02-04T05:51:42;101623.81;;;10.20;89.58
84108;BME280;74203;50.730;1.626;2024-02-04T05:53:50;101629.41;;;10.27;89.77
84108;BME280;74203;50.730;1.626;2024-02-04T05:55:58;101629.22;;;10.20;89.64
84108;BME280;74203;50.730;1.626;2024-02-04T05:58:05;101626.19;;;10.15;89.58
84108;BME280;74203;50.730;1.626;2024-02-04T06:00:14;101628.38;;;10.20;89.77
84108;BME280;74203;50.730;1.626;2024-02-04T06:02:22;101628.03;;;10.23;89.33
84108;BME280;74203;50.730;1.626;2024-02-04T06:04:29;101634.97;;;10.17;89.38
84108;BME280;74203;50.730;1.626;2024-02-04T06:06:36;101627.56;;;10.11;89.57
84108;BME280;74203;50.730;1.626;2024-02-04T06:08:44;101632.28;;;10.25;89.32
84108;BME280;74203;50.730;1.626;2024-02-04T06:10:52;101621.78;;;10.22;89.44
84108;BME280;74203;50.730;1.626;2024-02-04T06:12:59;101623.72;;;10.05;89.67
84108;BME280;74203;50.730;1.626;2024-02-04T06:15:09;101619.47;;;10.11;89.61
84108;BME280;74203;50.730;1.626;2024-02-04T06:17:19;101619.47;;;10.11;89.84
84108;BME280;74203;50.730;1.626;2024-02-04T06:19:26;101608.00;;;10.17;89.44
84108;BME280;74203;50.730;1.626;2024-02-04T06:21:33;101616.47;;;10.06;89.64
84108;BME280;74203;50.730;1.626;2024-02-04T06:23:42;101602.22;;;10.20;89.49
84108;BME280;74203;50.730;1.626;2024-02-04T06:25:50;101614.09;;;10.11;89.72
84108;BME280;74203;50.730;1.626;2024-02-04T06:27:57;101601.62;;;10.10;89.92
84108;BME280;74203;50.730;1.626;2024-02-04T06:30:06;101606.03;;;10.03;90.19
84108;BME280;74203;50.730;1.626;2024-02-04T06:32:13;101598.59;;;10.05;89.92
84108;BME280;74203;50.730;1.626;2024-02-04T06:34:21;101603.63;;;10.08;90.11
84108;BME280;74203;50.730;1.626;2024-02-04T06:36:28;101593.56;;;9.94;90.23
84108;BME280;74203;50.730;1.626;2024-02-04T06:38:35;101599.94;;;10.01;90.20
84108;BME280;74203;50.730;1.626;2024-02-04T06:40:43;101608.00;;;10.17;89.81
84108;BME280;74203;50.730;1.626;2024-02-04T06:42:51;101605.31;;;10.09;89.64
84108;BME280;74203;50.730;1.626;2024-02-04T06:44:58;101600.91;;;10.16;89.95
84108;BME280;74203;50.730;1.626;2024-02-04T06:47:05;101605.44;;;10.16;89.90
84108;BME280;74203;50.730;1.626;2024-02-04T06:49:13;101598.56;;;10.13;89.96
84108;BME280;74203;50.730;1.626;2024-02-04T06:51:20;101585.44;;;10.10;89.60
84108;BME280;74203;50.730;1.626;2024-02-04T06:53:28;101579.34;;;10.16;89.61
84108;BME280;74203;50.730;1.626;2024-02-04T06:55:35;101576.31;;;10.11;89.83
84108;BME280;74203;50.730;1.626;2024-02-04T06:57:43;101576.00;;;10.06;89.96
84108;BME280;74203;50.730;1.626;2024-02-04T06:59:50;101580.38;;;10.07;89.83
84108;BME280;74203;50.730;1.626;2024-02-04T07:01:58;101573.94;;;10.16;89.49
84108;BME280;74203;50.730;1.626;2024-02-04T07:04:05;101595.38;;;10.09;89.72
84108;BME280;74203;50.730;1.626;2024-02-04T07:06:13;101594.69;;;10.07;89.75
84108;BME280;74203;50.730;1.626;2024-02-04T07:08:21;101605.03;;;9.96;90.13
84108;BME280;74203;50.730;1.626;2024-02-04T07:10:28;101612.13;;;9.97;90.21
84108;BME280;74203;50.730;1.626;2024-02-04T07:12:35;101609.78;;;9.85;90.66
84108;BME280;74203;50.730;1.626;2024-02-04T07:14:43;101611.44;;;9.95;90.64
84108;BME280;74203;50.730;1.626;2024-02-04T07:16:51;101605.38;;;9.93;90.46
84108;BME280;74203;50.730;1.626;2024-02-04T07:18:58;101615.19;;;9.85;90.89
84108;BME280;74203;50.730;1.626;2024-02-04T07:21:06;101605.38;;;9.93;90.70
84108;BME280;74203;50.730;1.626;2024-02-04T07:23:14;101607.75;;;9.88;90.81
84108;BME280;74203;50.730;1.626;2024-02-04T07:25:21;101610.94;;;9.91;90.46
84108;BME280;74203;50.730;1.626;2024-02-04T07:27:29;101610.72;;;10.01;90.47
84108;BME280;74203;50.730;1.626;2024-02-04T07:29:36;101622.03;;;10.04;90.38
84108;BME280;74203;50.730;1.626;2024-02-04T07:31:44;101628.25;;;10.13;90.07
84108;BME280;74203;50.730;1.626;2024-02-04T07:33:51;101621.81;;;10.14;89.91
84108;BME280;74203;50.730;1.626;2024-02-04T07:35:59;101619.81;;;10.08;90.04
84108;BME280;74203;50.730;1.626;2024-02-04T07:38:06;101610.22;;;10.05;90.14
84108;BME280;74203;50.730;1.626;2024-02-04T07:40:15;101621.53;;;10.01;90.20
84108;BME280;74203;50.730;1.626;2024-02-04T07:42:22;101612.59;;;10.00;90.20
84108;BME280;74203;50.730;1.626;2024-02-04T07:44:30;101618.16;;;9.99;90.37
84108;BME280;74203;50.730;1.626;2024-02-04T07:46:38;101615.47;;;9.99;90.47
84108;BME280;74203;50.730;1.626;2024-02-04T07:48:45;101611.44;;;10.03;90.51
84108;BME280;74203;50.730;1.626;2024-02-04T07:50:53;101615.09;;;10.02;90.13
84108;BME280;74203;50.730;1.626;2024-02-04T07:53:00;101614.13;;;9.95;90.73
84108;BME280;74203;50.730;1.626;2024-02-04T07:55:09;101622.53;;;10.00;90.44
84108;BME280;74203;50.730;1.626;2024-02-04T07:57:16;101624.91;;;10.03;90.49
84108;BME280;74203;50.730;1.626;2024-02-04T07:59:24;101620.22;;;9.97;90.44
84108;BME280;74203;50.730;1.626;2024-02-04T08:01:32;101618.16;;;9.99;90.36
84108;BME280;74203;50.730;1.626;2024-02-04T08:03:39;101613.25;;;10.02;90.53
84108;BME280;74203;50.730;1.626;2024-02-04T08:05:47;101611.06;;;10.06;90.38
84108;BME280;74203;50.730;1.626;2024-02-04T08:07:58;101621.34;;;10.02;90.24
84108;BME280;74203;50.730;1.626;2024-02-04T08:10:06;101616.59;;;10.12;90.00
84108;BME280;74203;50.730;1.626;2024-02-04T08:12:14;101629.25;;;10.12;89.81
84108;BME280;74203;50.730;1.626;2024-02-04T08:14:22;101622.00;;;10.12;89.85
84108;BME280;74203;50.730;1.626;2024-02-04T08:16:29;101615.41;;;10.15;89.92
84108;BME280;74203;50.730;1.626;2024-02-04T08:18:36;101621.16;;;10.12;89.97
84108;BME280;74203;50.730;1.626;2024-02-04T08:20:44;101611.03;;;10.14;89.63
84108;BME280;74203;50.730;1.626;2024-02-04T08:22:52;101616.59;;;10.12;89.81
84108;BME280;74203;50.730;1.626;2024-02-04T08:24:59;101609.31;;;10.21;89.81
84108;BME280;74203;50.730;1.626;2024-02-04T08:27:07;101605.59;;;10.22;89.64
84108;BME280;74203;50.730;1.626;2024-02-04T08:29:15;101604.75;;;10.22;89.25
84108;BME280;74203;50.730;1.626;2024-02-04T08:31:22;101598.69;;;10.20;89.41
84108;BME280;74203;50.730;1.626;2024-02-04T08:33:30;101587.41;;;10.24;88.97
84108;BME280;74203;50.730;1.626;2024-02-04T08:35:37;101605.19;;;10.42;88.80
84108;BME280;74203;50.730;1.626;2024-02-04T08:37:44;101592.97;;;10.54;88.51
84108;BME280;74203;50.730;1.626;2024-02-04T08:39:52;101595.16;;;10.58;88.19
84108;BME280;74203;50.730;1.626;2024-02-04T08:41:59;101593.75;;;10.71;87.75
84108;BME280;74203;50.730;1.626;2024-02-04T08:44:07;101589.19;;;10.71;87.15
84108;BME280;74203;50.730;1.626;2024-02-04T08:46:14;101593.00;;;10.77;87.05
84108;BME280;74203;50.730;1.626;2024-02-04T08:48:22;101594.12;;;10.82;86.73
84108;BME280;74203;50.730;1.626;2024-02-04T08:50:29;101588.22;;;10.64;87.18
84108;BME280;74203;50.730;1.626;2024-02-04T08:52:37;101587.47;;;10.70;87.49
84108;BME280;74203;50.730;1.626;2024-02-04T08:54:44;101587.59;;;10.54;87.56
84108;BME280;74203;50.730;1.626;2024-02-04T08:56:52;101596.44;;;10.39;88.47
84108;BME280;74203;50.730;1.626;2024-02-04T08:58:59;101592.66;;;10.49;88.27
84108;BME280;74203;50.730;1.626;2024-02-04T09:01:07;101595.38;;;10.49;88.20
84108;BME280;74203;50.730;1.626;2024-02-04T09:03:14;101581.84;;;10.57;88.33
84108;BME280;74203;50.730;1.626;2024-02-04T09:05:23;101587.38;;;10.63;87.76
84108;BME280;74203;50.730;1.626;2024-02-04T09:07:30;101588.59;;;10.53;87.96
84108;BME280;74203;50.730;1.626;2024-02-04T09:09:38;101590.41;;;10.60;87.94
84108;BME280;74203;50.730;1.626;2024-02-04T09:11:45;101593.63;;;10.64;87.62
84108;BME280;74203;50.730;1.626;2024-02-04T09:13:52;101595.16;;;10.81;87.12
84108;BME280;74203;50.730;1.626;2024-02-04T09:16:00;101597.44;;;10.70;87.13
84108;BME280;74203;50.730;1.626;2024-02-04T09:18:08;101600.94;;;10.78;86.80
84108;BME280;74203;50.730;1.626;2024-02-04T09:20:16;101583.47;;;10.66;87.36
84108;BME280;74203;50.730;1.626;2024-02-04T09:22:24;101583.06;;;10.77;87.18
84108;BME280;74203;50.730;1.626;2024-02-04T09:24:32;101582.44;;;10.67;87.26
84108;BME280;74203;50.730;1.626;2024-02-04T09:26:39;101587.47;;;10.70;87.25
84108;BME280;74203;50.730;1.626;2024-02-04T09:28:47;101585.44;;;10.72;87.03
84108;BME280;74203;50.730;1.626;2024-02-04T09:30:54;101588.34;;;10.71;87.44
84108;BME280;74203;50.730;1.626;2024-02-04T09:33:02;101598.28;;;10.70;87.27
84108;BME280;74203;50.730;1.626;2024-02-04T09:35:10;101597.31;;;10.63;87.54
84108;BME280;74203;50.730;1.626;2024-02-04T09:37:18;101583.78;;;10.71;86.97
84108;BME280;74203;50.730;1.626;2024-02-04T09:39:25;101604.53;;;10.93;86.74
84108;BME280;74203;50.730;1.626;2024-02-04T09:41:33;101600.94;;;10.78;86.84
84108;BME280;74203;50.730;1.626;2024-02-04T09:43:41;101602.63;;;10.79;86.53
84108;BME280;74203;50.730;1.626;2024-02-04T09:45:50;101606.47;;;10.85;86.89
84108;BME280;74203;50.730;1.626;2024-02-04T09:47:58;101602.38;;;10.66;87.26
84108;BME280;74203;50.730;1.626;2024-02-04T09:50:08;101601.16;;;10.69;87.38
84108;BME280;74203;50.730;1.626;2024-02-04T09:52:19;101605.63;;;10.84;87.07
84108;BME280;74203;50.730;1.626;2024-02-04T09:54:30;101617.94;;;10.56;87.61
84108;BME280;74203;50.730;1.626;2024-02-04T09:56:40;101605.38;;;10.71;87.15
84108;BME280;74203;50.730;1.626;2024-02-04T09:58:48;101611.38;;;10.81;86.87
84108;BME280;74203;50.730;1.626;2024-02-04T10:00:56;101610.19;;;10.84;86.72
84108;BME280;74203;50.730;1.626;2024-02-04T10:03:05;101616.53;;;10.68;87.29
84108;BME280;74203;50.730;1.626;2024-02-04T10:05:13;101610.19;;;10.84;86.37
84108;BME280;74203;50.730;1.626;2024-02-04T10:07:20;101604.66;;;10.77;86.56
84108;BME280;74203;50.730;1.626;2024-02-04T10:09:28;101606.63;;;10.83;86.30
84108;BME280;74203;50.730;1.626;2024-02-04T10:11:35;101602.63;;;10.79;86.84
84108;BME280;74203;50.730;1.626;2024-02-04T10:13:50;101593.25;;;10.90;86.47
84108;BME280;74203;50.730;1.626;2024-02-04T10:15:58;101592.13;;;10.84;86.68
84108;BME280;74203;50.730;1.626;2024-02-04T10:18:08;101594.94;;;10.91;86.28
84108;BME280;74203;50.730;1.626;2024-02-04T10:20:16;101603.78;;;10.77;87.04
84108;BME280;74203;50.730;1.626;2024-02-04T10:22:25;101605.63;;;10.84;86.89
84108;BME280;74203;50.730;1.626;2024-02-04T10:24:33;101608.03;;;10.79;86.47
84108;BME280;74203;50.730;1.626;2024-02-04T10:26:41;101599.91;;;10.79;86.97
84108;BME280;74203;50.730;1.626;2024-02-04T10:28:49;101596.84;;;10.82;86.84
84108;BME280;74203;50.730;1.626;2024-02-04T10:30:57;101607.84;;;10.81;86.53
84108;BME280;74203;50.730;1.626;2024-02-04T10:33:05;101621.31;;;10.58;87.44
84108;BME280;74203;50.730;1.626;2024-02-04T10:35:12;101613.16;;;10.66;87.39
84108;BME280;74203;50.730;1.626;2024-02-04T10:37:20;101624.62;;;10.68;87.96
84108;BME280;74203;50.730;1.626;2024-02-04T10:39:27;101625.66;;;10.67;87.60
84108;BME280;74203;50.730;1.626;2024-02-04T10:41:36;101615.09;;;10.80;87.01
84108;BME280;74203;50.730;1.626;2024-02-04T10:43:51;101612.00;;;10.60;87.40
84108;BME280;74203;50.730;1.626;2024-02-04T10:46:05;101620.00;;;10.77;87.17
84108;BME280;74203;50.730;1.626;2024-02-04T10:48:19;101617.50;;;10.75;87.12
84108;BME280;74203;50.730;1.626;2024-02-04T10:50:27;101621.47;;;10.64;87.43
84108;BME280;74203;50.730;1.626;2024-02-04T10:52:38;101634.06;;;10.72;87.18
84108;BME280;74203;50.730;1.626;2024-02-04T10:54:46;101632.72;;;10.68;87.85
84108;BME280;74203;50.730;1.626;2024-02-04T10:56:58;101636.13;;;10.62;87.89
84108;BME280;74203;50.730;1.626;2024-02-04T10:59:10;101654.00;;;10.63;87.59
84108;BME280;74203;50.730;1.626;2024-02-04T11:01:18;101657.78;;;10.54;87.96
84108;BME280;74203;50.730;1.626;2024-02-04T11:03:27;101659.19;;;10.42;88.19
84108;BME280;74203;50.730;1.626;2024-02-04T11:05:37;101645.34;;;10.45;88.06
84108;BME280;74203;50.730;1.626;2024-02-04T11:07:46;101644.59;;;10.59;88.18
84108;BME280;74203;50.730;1.626;2024-02-04T11:09:55;101645.91;;;10.63;87.70